Oreghegy Sor, Hungary

1:24 PM CET on December 03, 2016 (GMT +0100)
Weather of Veresegyh | | Change Station

Elev 577 ft 47.65 °N, 19.29 °E | Updated 26 seconds ago

Partly Cloudy
Partly Cloudy
40.0 °F
Feels Like 35 °F
N
7.4
Wind Variable Wind from NNW
Gusts 11.5 mph

Today
High -- | Low -- °F
--% Chance of Precip.
Yesterday
High -- | Low -- °F
Precip. -- in
Pressure 30.21 in
Visibility 6.2 miles
Clouds Few 4000 ft
Windchill 35 °F
Dew Point 28 °F
Humidity 62%
Rainfall 0.00 in
Snow Depth Not available.
7:12 AM 3:52 PM
Waxing Crescent, 14% visible
METAR LHBP 031200Z 30016KT 9999 FEW040 05/M04 Q1023 NOSIG
Pressure 30.21 in
Visibility 6.2 miles
Clouds Few 4000 ft
Windchill 35 °F
Dew Point 28 °F
Humidity 62%
Rainfall 0.00 in
Snow Depth Not available.
7:12 AM 3:52 PM
Waxing Crescent, 14% visible
METAR LHBP 031200Z 30016KT 9999 FEW040 05/M04 Q1023 NOSIG

10-Day Weather Forecast

×

Almanac

Astronomy

Dec. 03, 2016 Rise Set
Actual Time
Civil Twilight
Nautical Twilight
Astronomical Twilight
Moon
Length of Visible Light
Length of Day
Tomorrow will be .
, % of the Moon is Illuminated

Today's Extremes

Country Highs Country Lows

Community

WunderPhotos

Upload Photos

1,955,441 photos uploaded!

WunderBlog® & News

Nearby

Air Quality

  Air Quality AQ Index Pollutant
Not available.

Snow Depth

Station Depth Elevation

Earthquake Activity

City Distance Mag. Time & Date
Minimum magnitude displayed is 2.5.

Coastal Water Temperatures

Place Temperature

Stations

Nearby Weather Stations

Station Location Temp. Windchill Dew Point Humidity Wind Precip. Elev Updated Type